createdAt,value
2024-02-01T00:05:04.013Z,17.00
2024-02-01T00:10:09.959Z,17.00
2024-02-01T00:15:16.146Z,17.10
2024-02-01T00:20:21.359Z,17.10
2024-02-01T00:25:26.532Z,17.10
2024-02-01T00:30:33.933Z,17.10
2024-02-01T00:35:45.445Z,17.10
2024-02-01T00:40:49.890Z,17.30
2024-02-01T00:45:54.362Z,17.40
2024-02-01T00:50:58.946Z,17.30
2024-02-01T00:56:03.971Z,17.30
2024-02-01T01:01:09.444Z,17.20
2024-02-01T01:06:14.312Z,17.20
2024-02-01T01:11:18.850Z,17.10
2024-02-01T01:16:23.235Z,17.10
2024-02-01T01:21:27.617Z,17.10
2024-02-01T01:26:32.064Z,17.20
2024-02-01T01:31:36.404Z,17.20
2024-02-01T01:36:40.764Z,17.30
2024-02-01T01:41:48.795Z,17.40
2024-02-01T01:46:53.580Z,16.80
2024-02-01T01:51:58.398Z,17.40
2024-02-01T01:57:03.546Z,17.40
2024-02-01T02:02:08.595Z,17.50
2024-02-01T02:07:13.231Z,17.60
2024-02-01T02:12:17.719Z,17.60
2024-02-01T02:17:22.485Z,17.80
2024-02-01T02:22:27.855Z,17.80
2024-02-01T02:27:33.141Z,18.00
2024-02-01T02:32:38.036Z,18.10
2024-02-01T02:37:52.791Z,18.30
2024-02-01T02:42:58.088Z,18.40
2024-02-01T02:48:02.909Z,18.50
2024-02-01T02:53:08.370Z,18.70
2024-02-01T02:58:12.960Z,18.60
2024-02-01T03:03:17.532Z,18.70
2024-02-01T03:08:21.957Z,18.90
2024-02-01T03:13:26.459Z,19.00
2024-02-01T03:18:31.833Z,19.30
2024-02-01T03:23:36.734Z,19.70
2024-02-01T03:33:09.290Z,20.50
2024-02-01T03:38:18.411Z,20.60
2024-02-01T03:43:28.253Z,20.70
2024-02-01T03:48:36.452Z,21.10
2024-02-01T03:53:42.783Z,21.00
2024-02-01T03:58:49.702Z,21.00
2024-02-01T04:03:58.374Z,21.00
2024-02-01T04:09:04.020Z,20.90
2024-02-01T04:14:08.846Z,20.80
2024-02-01T04:19:15.535Z,20.90
2024-02-01T04:24:20.751Z,20.90
2024-02-01T04:29:26.221Z,21.20
2024-02-01T04:34:32.189Z,21.30
2024-02-01T04:39:37.257Z,21.70
2024-02-01T04:44:43.014Z,22.00
2024-02-01T04:49:49.457Z,21.90
2024-02-01T04:54:55.351Z,22.10
2024-02-01T05:00:01.508Z,22.10
2024-02-01T05:05:07.470Z,22.30
2024-02-01T05:10:17.854Z,22.30
2024-02-01T05:15:23.931Z,22.60
2024-02-01T05:20:31.024Z,22.60
2024-02-01T05:25:37.183Z,22.80
2024-02-01T05:30:46.388Z,23.30
2024-02-01T05:35:52.461Z,23.60
2024-02-01T05:41:00.578Z,24.00
2024-02-01T05:46:09.855Z,24.10
2024-02-01T05:51:16.035Z,24.10
2024-02-01T05:56:23.106Z,24.50
2024-02-01T06:01:30.128Z,24.50
2024-02-01T06:06:37.548Z,23.60
2024-02-01T06:11:53.555Z,23.00
2024-02-01T06:16:59.571Z,22.60
2024-02-01T06:22:08.815Z,22.20
2024-02-01T06:27:14.255Z,22.10
2024-02-01T06:32:26.208Z,22.40
2024-02-01T06:37:32.075Z,22.30
2024-02-01T06:42:47.462Z,22.30
2024-02-01T06:47:54.489Z,22.80
2024-02-01T06:53:11.748Z,23.00
2024-02-01T06:58:19.736Z,22.80
2024-02-01T07:03:28.466Z,23.00
2024-02-01T07:08:44.083Z,23.20
2024-02-01T07:13:56.253Z,23.40
2024-02-01T07:19:26.492Z,23.20
2024-02-01T07:24:51.794Z,22.70
2024-02-01T07:30:19.126Z,22.30
2024-02-01T07:35:43.053Z,22.10
2024-02-01T07:41:07.475Z,21.90
2024-02-01T07:46:32.787Z,21.90
2024-02-01T07:51:56.334Z,21.90
2024-02-01T07:57:20.116Z,21.80
2024-02-01T08:02:46.606Z,21.80
2024-02-01T08:07:51.910Z,21.80
2024-02-01T08:12:57.787Z,21.80
2024-02-01T08:18:03.231Z,21.90
2024-02-01T08:23:09.438Z,21.80
2024-02-01T08:28:14.445Z,21.70
2024-02-01T08:33:21.525Z,21.90
2024-02-01T08:38:26.942Z,22.00
2024-02-01T08:43:36.893Z,21.90
2024-02-01T08:48:41.841Z,22.00
2024-02-01T08:53:47.579Z,22.00
2024-02-01T08:58:53.464Z,22.00
2024-02-01T09:03:58.697Z,21.90
2024-02-01T09:09:03.698Z,21.70
2024-02-01T09:14:13.397Z,21.60
2024-02-01T09:19:21.070Z,21.40
2024-02-01T09:24:26.737Z,21.30
2024-02-01T09:29:37.161Z,21.20
2024-02-01T09:34:42.421Z,21.10
2024-02-01T09:39:47.346Z,21.00
2024-02-01T09:44:53.024Z,20.90
2024-02-01T09:49:58.421Z,20.90
2024-02-01T09:55:03.628Z,20.90
2024-02-01T10:00:15.006Z,20.90
2024-02-01T10:05:21.605Z,20.80
2024-02-01T10:10:27.631Z,20.80
2024-02-01T10:15:37.108Z,20.80
2024-02-01T10:20:42.152Z,20.70
2024-02-01T10:25:57.519Z,20.70
2024-02-01T10:31:13.505Z,20.60
2024-02-01T10:36:51.585Z,20.60
2024-02-01T10:42:01.641Z,20.60
2024-02-01T10:47:19.747Z,20.50
2024-02-01T10:52:33.764Z,20.50
2024-02-01T10:57:51.173Z,20.40
2024-02-01T11:03:01.285Z,20.40
2024-02-01T11:08:07.440Z,20.30
2024-02-01T11:13:13.440Z,20.40
2024-02-01T11:18:22.788Z,20.30
2024-02-01T11:23:37.822Z,20.40
2024-02-01T11:28:42.917Z,20.30
2024-02-01T11:33:47.969Z,20.30
2024-02-01T11:38:53.400Z,20.30
2024-02-01T11:43:59.688Z,20.30
2024-02-01T11:49:20.989Z,20.30
2024-02-01T11:54:32.246Z,20.30
2024-02-01T11:59:37.743Z,20.30
2024-02-01T12:04:47.474Z,20.30
2024-02-01T12:09:53.931Z,20.20
2024-02-01T12:15:00.327Z,20.20
2024-02-01T12:20:10.520Z,20.10
2024-02-01T12:25:20.810Z,20.10
2024-02-01T12:30:30.651Z,20.00
2024-02-01T12:35:37.707Z,20.00
2024-02-01T12:40:43.723Z,19.90
2024-02-01T12:45:50.082Z,19.90
2024-02-01T12:50:56.165Z,19.90
2024-02-01T12:56:02.270Z,19.80
2024-02-01T13:01:07.405Z,19.70
2024-02-01T13:06:14.824Z,19.60
2024-02-01T13:11:35.257Z,19.60
2024-02-01T13:16:53.557Z,19.60
2024-02-01T13:34:50.594Z,19.60
2024-02-01T13:40:30.827Z,19.50
2024-02-01T13:45:37.516Z,19.50
2024-02-01T13:50:42.936Z,19.50
2024-02-01T13:55:50.568Z,19.50
2024-02-01T14:00:59.884Z,19.50
2024-02-01T14:06:43.705Z,19.50
2024-02-01T14:11:58.436Z,19.60
2024-02-01T14:17:03.736Z,19.60
2024-02-01T14:22:08.752Z,19.60
2024-02-01T14:27:15.740Z,19.60
2024-02-01T14:32:24.334Z,19.60
2024-02-01T14:37:32.909Z,19.60
2024-02-01T14:42:50.980Z,19.60
2024-02-01T14:47:58.374Z,19.70
2024-02-01T14:53:10.101Z,19.70
2024-02-01T14:58:21.852Z,19.80
2024-02-01T15:03:27.821Z,19.70
2024-02-01T15:08:52.108Z,19.70
2024-02-01T15:21:01.982Z,19.70
2024-02-01T15:26:15.849Z,19.80
2024-02-01T15:31:26.000Z,19.60
2024-02-01T15:37:04.325Z,19.60
2024-02-01T15:42:14.351Z,19.60
2024-02-01T15:47:33.659Z,19.60
2024-02-01T15:53:51.340Z,19.60
2024-02-01T15:58:57.367Z,19.60
2024-02-01T16:04:04.179Z,19.60
2024-02-01T16:09:14.522Z,19.60
2024-02-01T16:14:25.714Z,19.60
2024-02-01T16:19:41.305Z,19.60
2024-02-01T16:24:56.701Z,19.60
2024-02-01T16:30:54.309Z,19.60
2024-02-01T16:36:04.203Z,19.70
2024-02-01T16:41:32.234Z,19.70
2024-02-01T16:46:50.518Z,19.70
2024-02-01T16:51:56.072Z,19.70
2024-02-01T16:57:10.227Z,19.70
2024-02-01T17:03:13.003Z,19.70
2024-02-01T17:08:44.112Z,19.70
2024-02-01T17:13:49.878Z,19.70
2024-02-01T17:18:54.905Z,19.70
2024-02-01T17:24:00.172Z,19.70
2024-02-01T17:29:06.416Z,19.70
2024-02-01T17:34:31.526Z,19.80
2024-02-01T17:39:53.578Z,19.70
2024-02-01T17:45:00.830Z,19.70
2024-02-01T17:50:36.299Z,19.80
2024-02-01T17:56:04.057Z,19.80
2024-02-01T18:01:18.463Z,19.70
2024-02-01T18:06:48.147Z,19.70
2024-02-01T18:11:58.217Z,19.70
2024-02-01T18:17:06.021Z,19.70
2024-02-01T18:22:12.720Z,19.80
2024-02-01T18:27:26.184Z,19.80
2024-02-01T18:32:35.261Z,19.70
2024-02-01T18:37:41.421Z,19.70
2024-02-01T18:43:18.775Z,19.70
2024-02-01T18:48:27.925Z,19.70
2024-02-01T18:53:57.065Z,19.70
2024-02-01T18:59:09.161Z,19.70
2024-02-01T19:04:24.069Z,19.70
2024-02-01T19:09:44.526Z,19.70
2024-02-01T19:14:54.830Z,19.60
2024-02-01T19:19:59.996Z,19.60
2024-02-01T19:25:07.049Z,19.70
2024-02-01T19:30:30.761Z,19.70
2024-02-01T19:35:40.697Z,19.60
2024-02-01T19:40:50.095Z,19.70
2024-02-01T19:45:55.165Z,19.70
2024-02-01T19:51:01.625Z,19.70
2024-02-01T19:56:10.777Z,19.70
2024-02-01T20:01:18.541Z,19.60
2024-02-01T20:06:31.127Z,19.70
2024-02-01T20:11:36.941Z,19.70
2024-02-01T20:16:45.510Z,19.70
2024-02-01T20:21:51.424Z,19.70
2024-02-01T20:26:57.688Z,19.70
2024-02-01T20:32:04.847Z,19.70
2024-02-01T20:37:17.953Z,19.70
2024-02-01T20:42:27.297Z,19.70
2024-02-01T20:47:37.383Z,19.70
2024-02-01T20:52:43.354Z,19.70
2024-02-01T20:58:06.544Z,19.70
2024-02-01T21:03:16.916Z,19.70
2024-02-01T21:08:31.907Z,19.70
2024-02-01T21:13:45.007Z,19.70
2024-02-01T21:18:54.023Z,19.70
2024-02-01T21:24:01.040Z,19.70
2024-02-01T21:29:23.483Z,19.70
2024-02-01T21:34:40.004Z,19.70
2024-02-01T21:39:58.048Z,19.70
2024-02-01T21:45:06.866Z,19.70
2024-02-01T21:50:16.083Z,19.70
2024-02-01T21:55:25.194Z,19.70
2024-02-01T22:00:30.658Z,19.70
2024-02-01T22:05:38.777Z,19.70
2024-02-01T22:10:44.084Z,19.70
2024-02-01T22:15:49.890Z,19.70
2024-02-01T22:20:54.933Z,19.70
2024-02-01T22:26:00.903Z,19.70
2024-02-01T22:31:08.359Z,19.70
2024-02-01T22:36:14.550Z,19.70
2024-02-01T22:41:21.102Z,19.80
2024-02-01T22:46:26.531Z,19.70
2024-02-01T22:51:33.021Z,19.70
2024-02-01T22:56:38.027Z,19.70
2024-02-01T23:01:45.673Z,19.70
2024-02-01T23:06:51.603Z,19.80
2024-02-01T23:11:57.915Z,19.70
2024-02-01T23:17:03.569Z,19.70
2024-02-01T23:22:11.686Z,19.80
2024-02-01T23:27:17.822Z,19.80
2024-02-01T23:32:23.832Z,19.70
2024-02-01T23:37:30.005Z,19.70
2024-02-01T23:42:35.240Z,19.70
2024-02-01T23:47:43.356Z,19.70
2024-02-01T23:52:48.611Z,19.70
2024-02-01T23:57:54.596Z,19.70
